sensor_id;sensor_type;location;lat;lon;timestamp;pressure;altitude;pressure_sealevel;temperature;humidity
60170;BME280;46042;49.444;6.862;2023-09-07T00:02:06;98917.19;;;15.54;100.00
60170;BME280;46042;49.444;6.862;2023-09-07T00:04:33;98920.00;;;15.52;100.00
60170;BME280;46042;49.444;6.862;2023-09-07T00:06:59;98919.41;;;15.48;100.00
60170;BME280;46042;49.444;6.862;2023-09-07T00:09:27;98921.59;;;15.43;100.00
60170;BME280;46042;49.444;6.862;2023-09-07T00:11:54;98909.66;;;15.38;100.00
60170;BME280;46042;49.444;6.862;2023-09-07T00:14:20;98919.44;;;15.37;100.00
60170;BME280;46042;49.444;6.862;2023-09-07T00:16:47;98917.75;;;15.36;100.00
60170;BME280;46042;49.444;6.862;2023-09-07T00:19:15;98917.03;;;15.34;100.00
60170;BME280;46042;49.444;6.862;2023-09-07T00:21:42;98906.91;;;15.28;100.00
60170;BME280;46042;49.444;6.862;2023-09-07T00:24:09;98915.00;;;15.26;100.00
60170;BME280;46042;49.444;6.862;2023-09-07T00:26:36;98912.22;;;15.28;100.00
60170;BME280;46042;49.444;6.862;2023-09-07T00:29:03;98909.84;;;15.25;100.00
60170;BME280;46042;49.444;6.862;2023-09-07T00:31:30;98912.59;;;15.23;100.00
60170;BME280;46042;49.444;6.862;2023-09-07T00:33:57;98907.53;;;15.20;100.00
60170;BME280;46042;49.444;6.862;2023-09-07T00:36:23;98913.81;;;15.19;100.00
60170;BME280;46042;49.444;6.862;2023-09-07T00:38:50;98914.06;;;15.16;100.00
60170;BME280;46042;49.444;6.862;2023-09-07T00:41:17;98912.63;;;15.12;100.00
60170;BME280;46042;49.444;6.862;2023-09-07T00:43:43;98905.06;;;15.07;100.00
60170;BME280;46042;49.444;6.862;2023-09-07T00:46:10;98909.50;;;15.06;100.00
60170;BME280;46042;49.444;6.862;2023-09-07T00:48:38;98917.56;;;15.05;100.00
60170;BME280;46042;49.444;6.862;2023-09-07T00:51:05;98912.50;;;15.02;100.00
60170;BME280;46042;49.444;6.862;2023-09-07T00:53:31;98915.31;;;15.00;100.00
60170;BME280;46042;49.444;6.862;2023-09-07T00:55:59;98904.09;;;14.97;100.00
60170;BME280;46042;49.444;6.862;2023-09-07T00:58:26;98908.53;;;14.96;100.00
60170;BME280;46042;49.444;6.862;2023-09-07T01:00:53;98907.25;;;14.90;100.00
60170;BME280;46042;49.444;6.862;2023-09-07T01:03:20;98909.03;;;14.90;100.00
60170;BME280;46042;49.444;6.862;2023-09-07T01:08:23;98910.25;;;14.86;100.00
60170;BME280;46042;49.444;6.862;2023-09-07T01:10:51;98909.66;;;14.82;100.00
60170;BME280;46042;49.444;6.862;2023-09-07T01:13:19;98901.81;;;14.81;100.00
60170;BME280;46042;49.444;6.862;2023-09-07T01:15:46;98908.31;;;14.76;100.00
60170;BME280;46042;49.444;6.862;2023-09-07T01:18:15;98907.75;;;14.73;100.00
60170;BME280;46042;49.444;6.862;2023-09-07T01:20:51;98906.88;;;14.72;100.00
60170;BME280;46042;49.444;6.862;2023-09-07T01:23:19;98908.88;;;14.69;100.00
60170;BME280;46042;49.444;6.862;2023-09-07T01:25:47;98903.97;;;14.64;100.00
60170;BME280;46042;49.444;6.862;2023-09-07T01:28:15;98906.72;;;14.62;100.00
60170;BME280;46042;49.444;6.862;2023-09-07T01:30:42;98893.47;;;14.62;100.00
60170;BME280;46042;49.444;6.862;2023-09-07T01:33:08;98900.56;;;14.62;100.00
60170;BME280;46042;49.444;6.862;2023-09-07T01:35:36;98897.19;;;14.60;100.00
60170;BME280;46042;49.444;6.862;2023-09-07T01:38:04;98890.34;;;14.57;100.00
60170;BME280;46042;49.444;6.862;2023-09-07T01:40:30;98891.44;;;14.55;100.00
60170;BME280;46042;49.444;6.862;2023-09-07T01:42:57;98896.13;;;14.51;100.00
60170;BME280;46042;49.444;6.862;2023-09-07T01:45:24;98888.16;;;14.51;100.00
60170;BME280;46042;49.444;6.862;2023-09-07T01:47:51;98891.91;;;14.48;100.00
60170;BME280;46042;49.444;6.862;2023-09-07T01:50:18;98892.03;;;14.47;100.00
60170;BME280;46042;49.444;6.862;2023-09-07T01:52:47;98892.28;;;14.44;100.00
60170;BME280;46042;49.444;6.862;2023-09-07T01:55:15;98887.31;;;14.39;100.00
60170;BME280;46042;49.444;6.862;2023-09-07T01:57:42;98887.19;;;14.29;100.00
60170;BME280;46042;49.444;6.862;2023-09-07T02:00:09;98891.78;;;14.27;100.00
60170;BME280;46042;49.444;6.862;2023-09-07T02:02:36;98894.91;;;14.21;100.00
60170;BME280;46042;49.444;6.862;2023-09-07T02:05:03;98891.50;;;14.19;100.00
60170;BME280;46042;49.444;6.862;2023-09-07T02:07:30;98891.50;;;14.19;100.00
60170;BME280;46042;49.444;6.862;2023-09-07T02:09:57;98893.56;;;14.15;100.00
60170;BME280;46042;49.444;6.862;2023-09-07T02:12:24;98891.75;;;14.16;100.00
60170;BME280;46042;49.444;6.862;2023-09-07T02:14:50;98897.19;;;14.14;100.00
60170;BME280;46042;49.444;6.862;2023-09-07T02:17:17;98884.28;;;14.10;100.00
60170;BME280;46042;49.444;6.862;2023-09-07T02:19:44;98891.50;;;14.07;100.00
60170;BME280;46042;49.444;6.862;2023-09-07T02:22:11;98895.94;;;14.07;100.00
60170;BME280;46042;49.444;6.862;2023-09-07T02:24:38;98895.22;;;14.05;100.00
60170;BME280;46042;49.444;6.862;2023-09-07T02:27:05;98893.66;;;14.02;100.00
60170;BME280;46042;49.444;6.862;2023-09-07T02:29:31;98886.66;;;14.01;100.00
60170;BME280;46042;49.444;6.862;2023-09-07T02:31:58;98883.19;;;14.01;100.00
60170;BME280;46042;49.444;6.862;2023-09-07T02:34:25;98884.97;;;14.00;100.00
60170;BME280;46042;49.444;6.862;2023-09-07T02:36:52;98888.59;;;13.99;100.00
60170;BME280;46042;49.444;6.862;2023-09-07T02:39:18;98885.34;;;13.96;100.00
60170;BME280;46042;49.444;6.862;2023-09-07T02:41:45;98889.06;;;13.93;100.00
60170;BME280;46042;49.444;6.862;2023-09-07T02:44:12;98886.66;;;13.90;100.00
60170;BME280;46042;49.444;6.862;2023-09-07T02:46:39;98882.31;;;13.89;100.00
60170;BME280;46042;49.444;6.862;2023-09-07T02:49:06;98879.69;;;13.89;100.00
60170;BME280;46042;49.444;6.862;2023-09-07T02:51:33;98876.31;;;13.87;100.00
60170;BME280;46042;49.444;6.862;2023-09-07T02:54:01;98876.41;;;13.85;100.00
60170;BME280;46042;49.444;6.862;2023-09-07T02:56:29;98879.16;;;13.84;100.00
60170;BME280;46042;49.444;6.862;2023-09-07T02:58:56;98874.00;;;13.82;100.00
60170;BME280;46042;49.444;6.862;2023-09-07T03:01:23;98878.56;;;13.80;100.00
60170;BME280;46042;49.444;6.862;2023-09-07T03:03:50;98869.03;;;13.77;100.00
60170;BME280;46042;49.444;6.862;2023-09-07T03:06:17;98868.44;;;13.74;100.00
60170;BME280;46042;49.444;6.862;2023-09-07T03:08:44;98862.53;;;13.70;100.00
60170;BME280;46042;49.444;6.862;2023-09-07T03:11:11;98862.03;;;13.65;100.00
60170;BME280;46042;49.444;6.862;2023-09-07T03:13:38;98870.69;;;13.67;100.00
60170;BME280;46042;49.444;6.862;2023-09-07T03:16:05;98869.25;;;13.63;100.00
60170;BME280;46042;49.444;6.862;2023-09-07T03:18:32;98870.44;;;13.59;100.00
60170;BME280;46042;49.444;6.862;2023-09-07T03:21:00;98867.06;;;13.57;100.00
60170;BME280;46042;49.444;6.862;2023-09-07T03:23:28;98862.97;;;13.53;100.00
60170;BME280;46042;49.444;6.862;2023-09-07T03:25:56;98858.72;;;13.50;100.00
60170;BME280;46042;49.444;6.862;2023-09-07T03:28:22;98864.84;;;13.50;100.00
60170;BME280;46042;49.444;6.862;2023-09-07T03:30:49;98867.50;;;13.50;100.00
60170;BME280;46042;49.444;6.862;2023-09-07T03:33:16;98867.75;;;13.47;100.00
60170;BME280;46042;49.444;6.862;2023-09-07T03:35:42;98876.94;;;13.42;100.00
60170;BME280;46042;49.444;6.862;2023-09-07T03:38:09;98866.28;;;13.43;100.00
60170;BME280;46042;49.444;6.862;2023-09-07T03:40:36;98868.03;;;13.43;100.00
60170;BME280;46042;49.444;6.862;2023-09-07T03:43:03;98874.22;;;13.43;100.00
60170;BME280;46042;49.444;6.862;2023-09-07T03:45:30;98874.94;;;13.45;100.00
60170;BME280;46042;49.444;6.862;2023-09-07T03:47:57;98869.75;;;13.44;100.00
60170;BME280;46042;49.444;6.862;2023-09-07T03:50:23;98870.69;;;13.43;100.00
60170;BME280;46042;49.444;6.862;2023-09-07T03:52:50;98872.59;;;13.41;100.00
60170;BME280;46042;49.444;6.862;2023-09-07T03:55:17;98873.69;;;13.38;100.00
60170;BME280;46042;49.444;6.862;2023-09-07T03:57:47;98879.00;;;13.38;100.00
60170;BME280;46042;49.444;6.862;2023-09-07T04:00:14;98881.09;;;13.33;100.00
60170;BME280;46042;49.444;6.862;2023-09-07T04:02:40;98874.34;;;13.29;100.00
60170;BME280;46042;49.444;6.862;2023-09-07T04:05:08;98876.59;;;13.22;100.00
60170;BME280;46042;49.444;6.862;2023-09-07T04:07:37;98885.84;;;13.16;100.00
60170;BME280;46042;49.444;6.862;2023-09-07T04:10:05;98870.91;;;13.15;100.00
60170;BME280;46042;49.444;6.862;2023-09-07T04:12:32;98879.41;;;13.07;100.00
60170;BME280;46042;49.444;6.862;2023-09-07T04:15:03;98882.91;;;13.08;100.00
60170;BME280;46042;49.444;6.862;2023-09-07T04:17:30;98881.00;;;13.10;100.00
60170;BME280;46042;49.444;6.862;2023-09-07T04:19:59;98880.28;;;13.08;100.00
60170;BME280;46042;49.444;6.862;2023-09-07T04:22:26;98882.06;;;13.07;100.00
60170;BME280;46042;49.444;6.862;2023-09-07T04:24:52;98875.94;;;13.07;100.00
60170;BME280;46042;49.444;6.862;2023-09-07T04:27:19;98881.31;;;13.05;100.00
60170;BME280;46042;49.444;6.862;2023-09-07T04:29:46;98878.69;;;13.05;100.00
60170;BME280;46042;49.444;6.862;2023-09-07T04:32:12;98878.81;;;13.04;100.00
60170;BME280;46042;49.444;6.862;2023-09-07T04:34:39;98891.06;;;13.05;100.00
60170;BME280;46042;49.444;6.862;2023-09-07T04:37:06;98888.53;;;13.03;100.00
60170;BME280;46042;49.444;6.862;2023-09-07T04:39:32;98885.88;;;13.03;100.00
60170;BME280;46042;49.444;6.862;2023-09-07T04:41:59;98893.81;;;13.03;100.00
60170;BME280;46042;49.444;6.862;2023-09-07T04:44:26;98879.78;;;13.03;100.00
60170;BME280;46042;49.444;6.862;2023-09-07T04:46:57;98891.31;;;13.02;100.00
60170;BME280;46042;49.444;6.862;2023-09-07T04:49:24;98891.41;;;13.00;100.00
60170;BME280;46042;49.444;6.862;2023-09-07T04:51:53;98886.22;;;12.99;100.00
60170;BME280;46042;49.444;6.862;2023-09-07T04:54:20;98888.03;;;12.98;100.00
60170;BME280;46042;49.444;6.862;2023-09-07T04:56:47;98891.63;;;12.97;100.00
60170;BME280;46042;49.444;6.862;2023-09-07T04:59:14;98889.09;;;12.95;100.00
60170;BME280;46042;49.444;6.862;2023-09-07T05:01:41;98897.25;;;12.92;100.00
60170;BME280;46042;49.444;6.862;2023-09-07T05:04:08;98894.59;;;12.92;100.00
60170;BME280;46042;49.444;6.862;2023-09-07T05:06:35;98897.97;;;12.94;100.00
60170;BME280;46042;49.444;6.862;2023-09-07T05:09:04;98893.00;;;12.90;100.00
60170;BME280;46042;49.444;6.862;2023-09-07T05:11:31;98900.84;;;12.91;100.00
60170;BME280;46042;49.444;6.862;2023-09-07T05:14:01;98893.13;;;12.88;100.00
60170;BME280;46042;49.444;6.862;2023-09-07T05:16:28;98893.97;;;12.89;100.00
60170;BME280;46042;49.444;6.862;2023-09-07T05:18:55;98898.44;;;12.88;100.00
60170;BME280;46042;49.444;6.862;2023-09-07T05:21:22;98902.03;;;12.87;100.00
60170;BME280;46042;49.444;6.862;2023-09-07T05:23:50;98901.47;;;12.82;100.00
60170;BME280;46042;49.444;6.862;2023-09-07T05:26:23;98906.03;;;12.80;100.00
60170;BME280;46042;49.444;6.862;2023-09-07T05:28:51;98905.09;;;12.81;100.00
60170;BME280;46042;49.444;6.862;2023-09-07T05:31:18;98906.78;;;12.82;100.00
60170;BME280;46042;49.444;6.862;2023-09-07T05:33:44;98908.25;;;12.86;100.00
60170;BME280;46042;49.444;6.862;2023-09-07T05:36:11;98905.81;;;12.96;100.00
60170;BME280;46042;49.444;6.862;2023-09-07T05:38:38;98910.31;;;13.07;100.00
60170;BME280;46042;49.444;6.862;2023-09-07T05:41:05;98911.00;;;13.22;100.00
60170;BME280;46042;49.444;6.862;2023-09-07T05:43:33;98923.25;;;13.36;100.00
60170;BME280;46042;49.444;6.862;2023-09-07T05:45:59;98921.28;;;13.51;100.00
60170;BME280;46042;49.444;6.862;2023-09-07T05:48:26;98922.66;;;13.68;100.00
60170;BME280;46042;49.444;6.862;2023-09-07T05:50:53;98922.63;;;13.81;100.00
60170;BME280;46042;49.444;6.862;2023-09-07T05:53:20;98917.25;;;13.94;100.00
60170;BME280;46042;49.444;6.862;2023-09-07T05:55:47;98917.75;;;14.11;100.00
60170;BME280;46042;49.444;6.862;2023-09-07T05:58:13;98919.47;;;14.23;100.00
60170;BME280;46042;49.444;6.862;2023-09-07T06:00:41;98919.38;;;14.36;100.00
60170;BME280;46042;49.444;6.862;2023-09-07T06:03:08;98925.63;;;14.46;100.00
60170;BME280;46042;49.444;6.862;2023-09-07T06:05:36;98921.19;;;14.58;100.00
60170;BME280;46042;49.444;6.862;2023-09-07T06:08:05;98924.69;;;14.70;100.00
60170;BME280;46042;49.444;6.862;2023-09-07T06:10:35;98923.63;;;14.84;100.00
60170;BME280;46042;49.444;6.862;2023-09-07T06:13:02;98919.16;;;14.96;100.00
60170;BME280;46042;49.444;6.862;2023-09-07T06:15:30;98923.72;;;15.05;100.00
60170;BME280;46042;49.444;6.862;2023-09-07T06:17:57;98922.16;;;15.14;100.00
60170;BME280;46042;49.444;6.862;2023-09-07T06:20:24;98922.25;;;15.24;100.00
60170;BME280;46042;49.444;6.862;2023-09-07T06:22:51;98920.53;;;15.34;100.00
60170;BME280;46042;49.444;6.862;2023-09-07T06:25:18;98916.16;;;15.45;100.00
60170;BME280;46042;49.444;6.862;2023-09-07T06:27:45;98932.75;;;15.58;100.00
60170;BME280;46042;49.444;6.862;2023-09-07T06:30:12;98937.91;;;15.71;100.00
60170;BME280;46042;49.444;6.862;2023-09-07T06:32:40;98938.44;;;15.86;100.00
60170;BME280;46042;49.444;6.862;2023-09-07T06:35:07;98938.66;;;15.95;100.00
60170;BME280;46042;49.444;6.862;2023-09-07T06:37:34;98937.66;;;16.07;100.00
60170;BME280;46042;49.444;6.862;2023-09-07T06:40:02;98937.34;;;16.21;100.00
60170;BME280;46042;49.444;6.862;2023-09-07T06:42:30;98940.88;;;16.32;100.00
60170;BME280;46042;49.444;6.862;2023-09-07T06:44:58;98944.38;;;16.54;100.00
60170;BME280;46042;49.444;6.862;2023-09-07T06:47:25;98940.38;;;16.69;100.00
60170;BME280;46042;49.444;6.862;2023-09-07T06:49:53;98949.44;;;16.88;100.00
60170;BME280;46042;49.444;6.862;2023-09-07T06:52:20;98947.25;;;17.03;100.00
60170;BME280;46042;49.444;6.862;2023-09-07T06:54:47;98946.91;;;17.27;100.00
60170;BME280;46042;49.444;6.862;2023-09-07T06:57:17;98948.19;;;17.43;100.00
60170;BME280;46042;49.444;6.862;2023-09-07T06:59:43;98944.44;;;17.65;100.00
60170;BME280;46042;49.444;6.862;2023-09-07T07:02:10;98945.41;;;17.84;100.00
60170;BME280;46042;49.444;6.862;2023-09-07T07:04:38;98955.94;;;18.05;100.00
60170;BME280;46042;49.444;6.862;2023-09-07T07:07:04;98951.72;;;18.22;100.00
60170;BME280;46042;49.444;6.862;2023-09-07T07:09:32;98942.16;;;18.29;99.53
60170;BME280;46042;49.444;6.862;2023-09-07T07:12:00;98949.19;;;18.40;100.00
60170;BME280;46042;49.444;6.862;2023-09-07T07:14:29;98958.25;;;18.57;100.00
60170;BME280;46042;49.444;6.862;2023-09-07T07:16:56;98958.47;;;18.74;97.58
60170;BME280;46042;49.444;6.862;2023-09-07T07:19:23;98954.72;;;18.95;98.08
60170;BME280;46042;49.444;6.862;2023-09-07T07:21:51;98959.75;;;18.98;93.52
60170;BME280;46042;49.444;6.862;2023-09-07T07:24:18;98958.91;;;19.07;91.99
60170;BME280;46042;49.444;6.862;2023-09-07T07:26:46;98961.34;;;19.28;91.83
60170;BME280;46042;49.444;6.862;2023-09-07T07:29:12;98953.34;;;19.46;94.81
60170;BME280;46042;49.444;6.862;2023-09-07T07:31:39;98952.59;;;19.72;92.38
60170;BME280;46042;49.444;6.862;2023-09-07T07:34:06;98955.09;;;19.74;84.96
60170;BME280;46042;49.444;6.862;2023-09-07T07:36:34;98958.50;;;19.94;89.41
60170;BME280;46042;49.444;6.862;2023-09-07T07:39:02;98952.94;;;20.06;83.68
60170;BME280;46042;49.444;6.862;2023-09-07T07:41:30;98946.66;;;20.41;93.96
60170;BME280;46042;49.444;6.862;2023-09-07T07:43:56;98945.41;;;20.80;95.64
60170;BME280;46042;49.444;6.862;2023-09-07T07:46:23;98947.69;;;21.10;94.42
60170;BME280;46042;49.444;6.862;2023-09-07T07:48:50;98949.78;;;21.41;94.49
60170;BME280;46042;49.444;6.862;2023-09-07T07:51:17;98951.03;;;21.71;90.67
60170;BME280;46042;49.444;6.862;2023-09-07T07:53:44;98950.41;;;21.94;91.38
60170;BME280;46042;49.444;6.862;2023-09-07T07:56:17;98944.53;;;22.24;86.98
60170;BME280;46042;49.444;6.862;2023-09-07T07:58:44;98943.97;;;22.62;89.32
60170;BME280;46042;49.444;6.862;2023-09-07T08:01:19;98947.16;;;22.65;75.35
60170;BME280;46042;49.444;6.862;2023-09-07T08:03:49;98943.66;;;23.05;84.61
60170;BME280;46042;49.444;6.862;2023-09-07T08:06:16;98945.75;;;23.26;77.63
60170;BME280;46042;49.444;6.862;2023-09-07T08:08:43;98929.03;;;23.07;79.73
60170;BME280;46042;49.444;6.862;2023-09-07T08:11:12;98935.91;;;23.10;76.31
60170;BME280;46042;49.444;6.862;2023-09-07T08:13:38;98933.22;;;23.10;73.81
60170;BME280;46042;49.444;6.862;2023-09-07T08:16:06;98936.28;;;23.38;78.15
60170;BME280;46042;49.444;6.862;2023-09-07T08:18:34;98932.44;;;23.33;73.37
60170;BME280;46042;49.444;6.862;2023-09-07T08:21:02;98929.97;;;23.31;72.34
60170;BME280;46042;49.444;6.862;2023-09-07T08:23:29;98919.22;;;23.54;71.07
60170;BME280;46042;49.444;6.862;2023-09-07T08:25:55;98921.69;;;23.64;77.22
60170;BME280;46042;49.444;6.862;2023-09-07T08:28:22;98929.97;;;23.78;69.80
60170;BME280;46042;49.444;6.862;2023-09-07T08:30:50;98924.78;;;23.76;70.38
60170;BME280;46042;49.444;6.862;2023-09-07T08:33:21;98923.81;;;23.92;71.97
60170;BME280;46042;49.444;6.862;2023-09-07T08:36:06;98914.16;;;23.83;66.56
60170;BME280;46042;49.444;6.862;2023-09-07T08:38:35;98920.09;;;24.17;68.07
60170;BME280;46042;49.444;6.862;2023-09-07T08:41:02;98923.16;;;24.28;67.34
60170;BME280;46042;49.444;6.862;2023-09-07T08:43:35;98928.50;;;24.67;74.23
60170;BME280;46042;49.444;6.862;2023-09-07T08:46:27;98915.94;;;25.04;68.70
60170;BME280;46042;49.444;6.862;2023-09-07T08:48:55;98919.28;;;25.06;67.74
60170;BME280;46042;49.444;6.862;2023-09-07T08:51:27;98915.09;;;25.19;68.54
60170;BME280;46042;49.444;6.862;2023-09-07T08:53:54;98908.13;;;25.46;70.78
60170;BME280;46042;49.444;6.862;2023-09-07T08:56:22;98911.94;;;25.74;66.82
60170;BME280;46042;49.444;6.862;2023-09-07T08:58:52;98912.06;;;25.65;67.44
60170;BME280;46042;49.444;6.862;2023-09-07T09:01:19;98917.63;;;26.07;66.82
60170;BME280;46042;49.444;6.862;2023-09-07T09:03:49;98916.63;;;26.37;67.57
60170;BME280;46042;49.444;6.862;2023-09-07T09:06:18;98916.63;;;26.37;67.57
60170;BME280;46042;49.444;6.862;2023-09-07T09:08:49;98915.19;;;26.41;72.23
60170;BME280;46042;49.444;6.862;2023-09-07T09:11:17;98915.28;;;26.26;61.24
60170;BME280;46042;49.444;6.862;2023-09-07T09:13:44;98919.25;;;26.59;63.99
60170;BME280;46042;49.444;6.862;2023-09-07T09:16:12;98918.38;;;26.87;64.28
60170;BME280;46042;49.444;6.862;2023-09-07T09:18:56;98925.00;;;26.84;61.85
60170;BME280;46042;49.444;6.862;2023-09-07T09:21:24;98922.22;;;27.06;60.70
60170;BME280;46042;49.444;6.862;2023-09-07T09:23:53;98914.59;;;27.36;63.28
60170;BME280;46042;49.444;6.862;2023-09-07T09:26:21;62137.28;;;-147.77;100.00
60170;BME280;46042;49.444;6.862;2023-09-07T09:28:55;98911.38;;;28.15;63.29
60170;BME280;46042;49.444;6.862;2023-09-07T09:31:23;98906.19;;;28.27;62.33
60170;BME280;46042;49.444;6.862;2023-09-07T09:33:51;98908.88;;;28.27;57.87
60170;BME280;46042;49.444;6.862;2023-09-07T09:36:18;98905.75;;;27.83;52.98
60170;BME280;46042;49.444;6.862;2023-09-07T09:38:51;98908.25;;;28.38;62.69
60170;BME280;46042;49.444;6.862;2023-09-07T09:41:20;98897.75;;;28.83;65.64
60170;BME280;46042;49.444;6.862;2023-09-07T09:43:50;98896.84;;;28.95;54.43
60170;BME280;46042;49.444;6.862;2023-09-07T09:46:18;98889.16;;;28.79;58.10
60170;BME280;46042;49.444;6.862;2023-09-07T09:48:45;98885.38;;;28.21;54.04
60170;BME280;46042;49.444;6.862;2023-09-07T09:51:12;98895.13;;;28.02;51.89
60170;BME280;46042;49.444;6.862;2023-09-07T09:53:42;98895.03;;;28.69;54.76
60170;BME280;46042;49.444;6.862;2023-09-07T09:56:08;98889.56;;;28.96;54.52
60170;BME280;46042;49.444;6.862;2023-09-07T09:58:37;98890.63;;;28.88;50.34
60170;BME280;46042;49.444;6.862;2023-09-07T10:01:04;98885.06;;;28.63;51.58
60170;BME280;46042;49.444;6.862;2023-09-07T10:03:34;98883.53;;;28.87;53.56
60170;BME280;46042;49.444;6.862;2023-09-07T10:06:11;98877.38;;;28.53;52.82
60170;BME280;46042;49.444;6.862;2023-09-07T10:08:38;98881.63;;;29.33;56.74
60170;BME280;46042;49.444;6.862;2023-09-07T10:11:09;98878.03;;;29.46;51.05
60170;BME280;46042;49.444;6.862;2023-09-07T10:13:36;98877.97;;;29.53;53.37
60170;BME280;46042;49.444;6.862;2023-09-07T10:16:04;98882.50;;;29.27;47.83
60170;BME280;46042;49.444;6.862;2023-09-07T10:18:38;98873.19;;;29.09;50.09
60170;BME280;46042;49.444;6.862;2023-09-07T10:21:06;98873.53;;;29.65;59.06
60170;BME280;46042;49.444;6.862;2023-09-07T10:23:44;98878.59;;;29.55;49.81
60170;BME280;46042;49.444;6.862;2023-09-07T10:26:16;98880.09;;;29.76;49.13
60170;BME280;46042;49.444;6.862;2023-09-07T10:28:44;98878.81;;;29.54;47.20
60170;BME280;46042;49.444;6.862;2023-09-07T10:31:18;98874.13;;;29.67;50.91
60170;BME280;46042;49.444;6.862;2023-09-07T10:33:46;98875.06;;;29.80;51.09
60170;BME280;46042;49.444;6.862;2023-09-07T10:36:24;98869.09;;;29.97;48.67
60170;BME280;46042;49.444;6.862;2023-09-07T10:38:52;98868.75;;;30.12;48.16
60170;BME280;46042;49.444;6.862;2023-09-07T10:41:22;98858.22;;;29.97;57.88
60170;BME280;46042;49.444;6.862;2023-09-07T10:43:53;98859.94;;;30.16;59.39
60170;BME280;46042;49.444;6.862;2023-09-07T10:46:21;98857.22;;;30.16;50.73
60170;BME280;46042;49.444;6.862;2023-09-07T10:48:52;98857.34;;;30.65;52.05
60170;BME280;46042;49.444;6.862;2023-09-07T10:51:19;98857.34;;;30.65;52.05
60170;BME280;46042;49.444;6.862;2023-09-07T10:53:46;98856.44;;;31.21;51.61
60170;BME280;46042;49.444;6.862;2023-09-07T10:56:13;98856.69;;;31.31;55.31
60170;BME280;46042;49.444;6.862;2023-09-07T10:58:40;98859.84;;;30.67;47.20
60170;BME280;46042;49.444;6.862;2023-09-07T11:01:09;98861.81;;;31.09;47.28
60170;BME280;46042;49.444;6.862;2023-09-07T11:03:37;98856.47;;;31.02;49.58
60170;BME280;46042;49.444;6.862;2023-09-07T11:06:08;98856.88;;;31.60;50.84
60170;BME280;46042;49.444;6.862;2023-09-07T11:08:36;98861.06;;;31.32;47.60
60170;BME280;46042;49.444;6.862;2023-09-07T11:11:03;98858.16;;;31.15;46.76
60170;BME280;46042;49.444;6.862;2023-09-07T11:13:31;98861.44;;;31.05;45.97
60170;BME280;46042;49.444;6.862;2023-09-07T11:15:59;98854.38;;;31.16;45.35
60170;BME280;46042;49.444;6.862;2023-09-07T11:18:26;98858.41;;;31.44;46.14
60170;BME280;46042;49.444;6.862;2023-09-07T11:20:53;98860.53;;;31.42;46.61
60170;BME280;46042;49.444;6.862;2023-09-07T11:23:21;98854.59;;;32.12;48.88
60170;BME280;46042;49.444;6.862;2023-09-07T11:25:49;98865.94;;;31.97;50.74
60170;BME280;46042;49.444;6.862;2023-09-07T11:28:19;98855.88;;;32.09;50.55
60170;BME280;46042;49.444;6.862;2023-09-07T11:30:53;98852.09;;;32.34;49.28
60170;BME280;46042;49.444;6.862;2023-09-07T11:33:25;98856.19;;;31.65;44.57
60170;BME280;46042;49.444;6.862;2023-09-07T11:35:52;98856.69;;;31.86;46.60
60170;BME280;46042;49.444;6.862;2023-09-07T11:38:22;98871.66;;;31.95;46.09
60170;BME280;46042;49.444;6.862;2023-09-07T11:40:49;98854.94;;;32.03;45.99
60170;BME280;46042;49.444;6.862;2023-09-07T11:43:17;98851.84;;;32.35;50.96
60170;BME280;46042;49.444;6.862;2023-09-07T11:45:47;98851.72;;;32.42;46.14
60170;BME280;46042;49.444;6.862;2023-09-07T11:48:14;98856.81;;;31.79;44.24
60170;BME280;46042;49.444;6.862;2023-09-07T11:50:44;98851.22;;;31.62;47.56
60170;BME280;46042;49.444;6.862;2023-09-07T11:53:11;98852.22;;;32.03;52.42
60170;BME280;46042;49.444;6.862;2023-09-07T11:55:37;98857.16;;;32.18;42.65
60170;BME280;46042;49.444;6.862;2023-09-07T11:58:06;98852.34;;;32.20;43.58
60170;BME280;46042;49.444;6.862;2023-09-07T12:00:33;98848.34;;;32.64;43.62
60170;BME280;46042;49.444;6.862;2023-09-07T12:03:00;98848.34;;;32.64;43.62
60170;BME280;46042;49.444;6.862;2023-09-07T12:05:27;98842.41;;;32.67;42.03
60170;BME280;46042;49.444;6.862;2023-09-07T12:07:54;98838.31;;;32.94;47.21
60170;BME280;46042;49.444;6.862;2023-09-07T12:10:21;98842.50;;;32.84;42.93
60170;BME280;46042;49.444;6.862;2023-09-07T12:12:48;98842.81;;;32.59;45.08
60170;BME280;46042;49.444;6.862;2023-09-07T12:15:14;98835.81;;;32.51;41.71
60170;BME280;46042;49.444;6.862;2023-09-07T12:17:41;98833.22;;;32.97;49.30
60170;BME280;46042;49.444;6.862;2023-09-07T12:20:08;98843.06;;;32.86;43.67
60170;BME280;46042;49.444;6.862;2023-09-07T12:22:37;98834.06;;;33.44;42.87
60170;BME280;46042;49.444;6.862;2023-09-07T12:25:05;98845.34;;;33.18;40.89
60170;BME280;46042;49.444;6.862;2023-09-07T12:27:41;98834.22;;;33.08;40.91
60170;BME280;46042;49.444;6.862;2023-09-07T12:30:18;98830.06;;;32.76;41.67
60170;BME280;46042;49.444;6.862;2023-09-07T12:32:47;98830.16;;;32.82;40.42
60170;BME280;46042;49.444;6.862;2023-09-07T12:35:14;98834.34;;;33.30;44.79
60170;BME280;46042;49.444;6.862;2023-09-07T12:37:42;98831.00;;;33.57;45.61
60170;BME280;46042;49.444;6.862;2023-09-07T12:40:09;62137.28;;;-147.77;100.00
60170;BME280;46042;49.444;6.862;2023-09-07T12:42:43;62137.28;;;-147.77;100.00
60170;BME280;46042;49.444;6.862;2023-09-07T12:45:11;62137.28;;;-147.77;100.00
60170;BME280;46042;49.444;6.862;2023-09-07T12:47:39;62137.28;;;-147.77;100.00
60170;BME280;46042;49.444;6.862;2023-09-07T12:50:06;98824.81;;;32.34;42.50
60170;BME280;46042;49.444;6.862;2023-09-07T12:52:34;98821.16;;;32.81;41.81
60170;BME280;46042;49.444;6.862;2023-09-07T12:55:06;98812.72;;;33.12;44.08
60170;BME280;46042;49.444;6.862;2023-09-07T12:57:34;98814.72;;;33.16;43.68
60170;BME280;46042;49.444;6.862;2023-09-07T13:00:04;98818.84;;;33.48;39.71
60170;BME280;46042;49.444;6.862;2023-09-07T13:02:31;98813.22;;;32.39;41.95